Time;durP1;ratioP1;P1;durP2;ratioP2;P2;SDS_P1;SDS_P2;PMS_P1;PMS_P2;Temp;Humidity;BMP_temperature;BMP_pressure;BME280_temperature;BME280_humidity;BME280_pressure;Samples;Min_cycle;Max_cycle;Signal;HPM_P1;HPM_P2
2021/01/07 00:01:58;;;;;;;13.70;1.45;;;;;;;;;;5059399;28;20029;-48
2021/01/07 00:04:25;;;;;;;8.70;2.28;;;;;;;;;;5055881;28;20032;-46
2021/01/07 00:06:52;;;;;;;7.32;1.30;;;;;;;;;;5053942;28;20028;-49
2021/01/07 00:09:19;;;;;;;7.20;1.02;;;;;;;;;;5059565;28;20025;-46
2021/01/07 00:11:51;;;;;;;11.25;1.70;;;;;;;;;;5069630;28;20021;-46
2021/01/07 00:14:19;;;;;;;14.18;1.88;;;;;;;;;;5069199;28;20533;-47
2021/01/07 00:16:46;;;;;;;16.27;1.90;;;;;;;;;;5078129;28;20016;-48
2021/01/07 00:19:13;;;;;;;9.50;2.10;;;;;;;;;;5070852;28;20021;-47
2021/01/07 00:21:40;;;;;;;14.55;2.63;;;;;;;;;;5071730;28;20095;-51
2021/01/07 00:24:08;;;;;;;18.50;2.83;;;;;;;;;;5071587;28;20084;-46
2021/01/07 00:26:35;;;;;;;33.28;3.97;;;;;;;;;;5072020;28;20031;-47
2021/01/07 00:29:02;;;;;;;42.88;4.68;;;;;;;;;;5071417;28;20456;-47
2021/01/07 00:31:29;;;;;;;52.05;6.20;;;;;;;;;;5072034;28;20028;-45
2021/01/07 00:33:59;;;;;;;47.65;5.32;;;;;;;;;;5069939;28;20028;-45
2021/01/07 00:36:26;;;;;;;43.00;6.07;;;;;;;;;;5069174;28;20087;-44
2021/01/07 00:38:53;;;;;;;38.95;5.13;;;;;;;;;;5071273;28;20028;-45
2021/01/07 00:41:23;;;;;;;29.95;4.80;;;;;;;;;;5046059;28;20442;-45
2021/01/07 00:43:51;;;;;;;27.83;3.95;;;;;;;;;;5066863;28;20356;-44
2021/01/07 00:46:18;;;;;;;29.75;5.18;;;;;;;;;;5046774;28;20025;-45
2021/01/07 00:48:47;;;;;;;31.52;5.05;;;;;;;;;;5049389;28;20127;-44
2021/01/07 00:51:14;;;;;;;36.78;4.88;;;;;;;;;;5069785;28;20028;-46
2021/01/07 00:53:42;;;;;;;36.42;4.38;;;;;;;;;;5069280;28;20472;-53
2021/01/07 00:56:09;;;;;;;26.55;3.63;;;;;;;;;;5071314;28;20065;-46
2021/01/07 00:58:36;;;;;;;34.50;3.60;;;;;;;;;;5071620;28;20443;-43
2021/01/07 01:01:03;;;;;;;39.50;5.38;;;;;;;;;;5070986;28;20053;-44
2021/01/07 01:03:30;;;;;;;30.48;4.13;;;;;;;;;;5070689;28;20082;-46
2021/01/07 01:05:58;;;;;;;37.92;4.97;;;;;;;;;;5069877;28;20024;-44
2021/01/07 01:08:25;;;;;;;20.77;3.40;;;;;;;;;;5066874;28;20021;-44
2021/01/07 01:10:53;;;;;;;28.63;3.80;;;;;;;;;;5052717;28;20099;-51
2021/01/07 01:13:20;;;;;;;24.20;4.32;;;;;;;;;;5066806;28;20600;-44
2021/01/07 01:15:47;;;;;;;23.40;3.80;;;;;;;;;;5063512;28;20395;-45
2021/01/07 01:18:14;;;;;;;35.33;4.22;;;;;;;;;;5055266;28;20035;-44
2021/01/07 01:20:42;;;;;;;30.02;3.47;;;;;;;;;;5064358;28;20045;-45
2021/01/07 01:23:10;;;;;;;21.08;2.72;;;;;;;;;;5068601;28;20036;-50
2021/01/07 01:25:37;;;;;;;14.80;3.10;;;;;;;;;;5059439;28;20028;-44
2021/01/07 01:28:04;;;;;;;22.15;3.13;;;;;;;;;;5045416;28;20107;-43
2021/01/07 01:30:31;;;;;;;21.05;2.63;;;;;;;;;;5070154;28;20020;-47
2021/01/07 01:32:58;;;;;;;24.33;4.38;;;;;;;;;;5070469;28;20468;-52
2021/01/07 01:35:26;;;;;;;21.95;3.33;;;;;;;;;;5069679;28;20021;-49
2021/01/07 01:37:53;;;;;;;19.17;3.38;;;;;;;;;;5070474;28;20528;-43
2021/01/07 01:40:20;;;;;;;7.97;2.45;;;;;;;;;;5069948;28;20028;-51
2021/01/07 01:42:47;;;;;;;20.00;3.28;;;;;;;;;;5070018;28;20054;-44
2021/01/07 01:45:14;;;;;;;14.43;2.90;;;;;;;;;;5070459;28;20016;-44
2021/01/07 01:47:41;;;;;;;15.63;3.00;;;;;;;;;;5070805;28;20400;-45
2021/01/07 01:50:09;;;;;;;25.48;3.40;;;;;;;;;;5056220;28;20020;-44
2021/01/07 01:52:37;;;;;;;17.52;2.63;;;;;;;;;;5068849;28;20048;-42
2021/01/07 01:55:04;;;;;;;20.67;2.88;;;;;;;;;;5069486;28;20021;-43
2021/01/07 01:57:32;;;;;;;14.00;2.25;;;;;;;;;;5069595;28;20071;-44
2021/01/07 01:59:59;;;;;;;12.68;2.67;;;;;;;;;;5069914;28;20020;-42
2021/01/07 02:02:27;;;;;;;15.13;2.30;;;;;;;;;;5058435;28;20040;-42
2021/01/07 02:04:54;;;;;;;8.18;1.95;;;;;;;;;;5068427;28;20036;-43
2021/01/07 02:07:23;;;;;;;10.77;2.35;;;;;;;;;;5069890;28;20029;-43
2021/01/07 02:09:50;;;;;;;12.23;2.83;;;;;;;;;;5070071;28;20024;-43
2021/01/07 02:12:18;;;;;;;9.73;2.03;;;;;;;;;;5070714;28;20107;-44
2021/01/07 02:14:46;;;;;;;7.53;2.67;;;;;;;;;;5070513;28;20021;-43
2021/01/07 02:17:14;;;;;;;11.55;3.10;;;;;;;;;;5070914;28;20082;-43
2021/01/07 02:19:41;;;;;;;8.60;2.60;;;;;;;;;;5070292;28;20025;-44
2021/01/07 02:22:08;;;;;;;14.57;2.50;;;;;;;;;;5070065;28;20460;-52
2021/01/07 02:24:35;;;;;;;11.90;2.90;;;;;;;;;;5071316;28;20024;-47
2021/01/07 02:27:06;;;;;;;13.15;3.17;;;;;;;;;;5073119;28;20022;-43
2021/01/07 02:29:37;;;;;;;19.27;2.88;;;;;;;;;;5066622;28;20028;-45
2021/01/07 02:32:05;;;;;;;9.48;2.20;;;;;;;;;;5073901;28;20025;-47
2021/01/07 02:34:32;;;;;;;9.48;2.08;;;;;;;;;;5071194;28;20024;-43
2021/01/07 02:36:59;;;;;;;6.25;2.20;;;;;;;;;;5053011;28;20569;-44
2021/01/07 02:39:26;;;;;;;10.13;2.20;;;;;;;;;;5074785;28;20388;-44
2021/01/07 02:41:54;;;;;;;30.35;2.83;;;;;;;;;;5075160;28;20075;-44
2021/01/07 02:44:21;;;;;;;15.02;2.10;;;;;;;;;;5075043;28;20028;-45
2021/01/07 02:46:49;;;;;;;14.57;1.77;;;;;;;;;;5071678;28;20036;-45
2021/01/07 02:49:17;;;;;;;11.07;1.95;;;;;;;;;;5064229;28;20013;-44
2021/01/07 02:51:44;;;;;;;8.23;1.20;;;;;;;;;;5065428;28;20016;-47
2021/01/07 02:54:11;;;;;;;8.23;1.35;;;;;;;;;;5067697;28;20031;-49
2021/01/07 02:56:38;;;;;;;9.23;1.70;;;;;;;;;;5068973;28;20020;-44
2021/01/07 02:59:05;;;;;;;8.05;1.40;;;;;;;;;;5072000;28;20421;-44
2021/01/07 03:01:32;;;;;;;4.60;1.02;;;;;;;;;;5073728;28;20041;-45
2021/01/07 03:03:59;;;;;;;6.25;0.95;;;;;;;;;;5072058;28;20062;-43
2021/01/07 03:06:27;;;;;;;16.08;2.03;;;;;;;;;;5070877;28;20052;-44
2021/01/07 03:08:54;;;;;;;10.45;1.80;;;;;;;;;;5071991;28;20074;-41
2021/01/07 03:11:21;;;;;;;8.15;1.73;;;;;;;;;;5072611;28;20277;-42
2021/01/07 03:13:48;;;;;;;4.75;1.38;;;;;;;;;;5064879;28;20499;-45
2021/01/07 03:16:15;;;;;;;8.10;1.05;;;;;;;;;;5073347;28;20024;-43
2021/01/07 03:18:42;;;;;;;5.80;1.15;;;;;;;;;;5073813;28;20029;-45
2021/01/07 03:21:09;;;;;;;5.93;1.05;;;;;;;;;;5074224;28;20048;-42
2021/01/07 03:23:36;;;;;;;8.38;1.10;;;;;;;;;;5074774;28;20103;-44
2021/01/07 03:26:03;;;;;;;3.90;1.08;;;;;;;;;;5074692;28;20025;-42
2021/01/07 03:28:30;;;;;;;8.25;1.17;;;;;;;;;;5074623;28;20078;-44
2021/01/07 03:30:57;;;;;;;6.03;1.05;;;;;;;;;;5074565;28;20024;-44
2021/01/07 03:33:24;;;;;;;3.38;0.90;;;;;;;;;;5074539;28;20416;-44
2021/01/07 03:35:51;;;;;;;6.20;1.15;;;;;;;;;;5073526;28;20056;-43
2021/01/07 03:38:18;;;;;;;8.93;1.30;;;;;;;;;;5074089;28;20493;-42
2021/01/07 03:40:45;;;;;;;4.10;1.02;;;;;;;;;;5074518;28;20024;-44
2021/01/07 03:43:12;;;;;;;5.20;0.95;;;;;;;;;;5074267;28;20028;-43
2021/01/07 03:45:39;;;;;;;6.10;1.17;;;;;;;;;;5074378;28;20025;-44
2021/01/07 03:48:07;;;;;;;2.05;0.77;;;;;;;;;;5074318;28;20028;-44
2021/01/07 03:50:34;;;;;;;4.93;1.20;;;;;;;;;;5074281;28;20017;-43
2021/01/07 03:53:01;;;;;;;4.25;0.93;;;;;;;;;;5074161;28;20028;-44
2021/01/07 03:55:28;;;;;;;6.03;1.27;;;;;;;;;;5074064;28;20032;-47
2021/01/07 03:57:55;;;;;;;6.07;1.00;;;;;;;;;;5073967;28;20081;-43
2021/01/07 04:00:22;;;;;;;5.03;1.13;;;;;;;;;;5074135;28;20491;-43
2021/01/07 04:02:49;;;;;;;2.72;1.02;;;;;;;;;;5073997;28;20032;-43
2021/01/07 04:05:16;;;;;;;1.55;0.70;;;;;;;;;;5074151;28;20074;-43
2021/01/07 04:07:43;;;;;;;2.58;0.90;;;;;;;;;;5073862;28;20055;-43
2021/01/07 04:10:10;;;;;;;2.75;0.77;;;;;;;;;;5056079;28;20048;-43
2021/01/07 04:12:37;;;;;;;4.82;1.00;;;;;;;;;;5055944;28;20369;-43
2021/01/07 04:15:05;;;;;;;5.07;0.75;;;;;;;;;;5073783;28;20031;-42
2021/01/07 04:17:32;;;;;;;3.35;1.00;;;;;;;;;;5085420;28;20384;-43
2021/01/07 04:19:59;;;;;;;2.65;0.93;;;;;;;;;;5074035;28;20076;-54
2021/01/07 04:22:27;;;;;;;3.65;0.88;;;;;;;;;;5079491;28;20422;-53
2021/01/07 04:24:53;;;;;;;3.30;1.00;;;;;;;;;;5093652;28;20027;-53
2021/01/07 04:27:21;;;;;;;3.72;0.60;;;;;;;;;;5075138;28;20366;-53
2021/01/07 04:29:48;;;;;;;3.13;0.98;;;;;;;;;;5073417;28;20016;-51
2021/01/07 04:32:14;;;;;;;3.08;0.98;;;;;;;;;;5073420;28;20017;-51
2021/01/07 04:34:41;;;;;;;3.70;0.50;;;;;;;;;;5055862;28;20012;-53
2021/01/07 04:37:09;;;;;;;3.95;0.60;;;;;;;;;;5091295;28;20028;-52
2021/01/07 04:39:35;;;;;;;7.05;1.25;;;;;;;;;;5075452;28;20091;-53
2021/01/07 04:42:02;;;;;;;2.42;0.52;;;;;;;;;;5093517;28;20062;-50
2021/01/07 04:44:30;;;;;;;4.63;1.05;;;;;;;;;;5093411;28;20020;-53
2021/01/07 04:46:59;;;;;;;5.03;1.33;;;;;;;;;;5075006;28;20024;-52
2021/01/07 04:49:26;;;;;;;2.33;0.57;;;;;;;;;;5093289;28;20103;-54
2021/01/07 04:51:53;;;;;;;3.22;0.60;;;;;;;;;;5093224;28;20024;-51
2021/01/07 04:54:20;;;;;;;4.68;0.65;;;;;;;;;;5093054;28;20476;-51
2021/01/07 04:56:47;;;;;;;4.35;0.63;;;;;;;;;;5077621;28;20024;-52
2021/01/07 04:59:14;;;;;;;3.45;0.55;;;;;;;;;;5072821;28;20091;-50
2021/01/07 05:01:41;;;;;;;3.25;0.63;;;;;;;;;;5072946;28;20496;-49
2021/01/07 05:04:11;;;;;;;2.28;0.63;;;;;;;;;;5072992;28;20479;-48
2021/01/07 05:06:38;;;;;;;5.32;1.10;;;;;;;;;;5072772;28;20053;-51
2021/01/07 05:09:06;;;;;;;2.35;0.70;;;;;;;;;;5054566;28;20028;-50
2021/01/07 05:11:34;;;;;;;5.00;0.95;;;;;;;;;;5072960;28;20041;-53
2021/01/07 05:14:01;;;;;;;3.38;0.80;;;;;;;;;;5072854;28;20476;-53
2021/01/07 05:16:29;;;;;;;1.60;0.45;;;;;;;;;;5072584;28;20032;-47
2021/01/07 05:18:56;;;;;;;2.25;0.55;;;;;;;;;;5072599;28;20435;-51
2021/01/07 05:21:23;;;;;;;2.92;0.60;;;;;;;;;;5072585;28;20048;-42
2021/01/07 05:23:51;;;;;;;3.20;0.77;;;;;;;;;;5072494;28;20115;-50
2021/01/07 05:26:19;;;;;;;2.25;0.60;;;;;;;;;;5072396;28;20027;-53
2021/01/07 05:28:48;;;;;;;4.05;0.73;;;;;;;;;;5072668;28;20075;-49
2021/01/07 05:31:18;;;;;;;3.20;0.60;;;;;;;;;;5072516;28;20028;-51
2021/01/07 05:33:45;;;;;;;1.98;0.60;;;;;;;;;;5072506;28;20028;-53
2021/01/07 05:36:31;;;;;;;1.77;0.40;;;;;;;;;;5072469;28;20048;-50
2021/01/07 05:39:05;;;;;;;2.97;0.60;;;;;;;;;;5072583;28;20108;-42
2021/01/07 05:41:36;;;;;;;1.77;0.52;;;;;;;;;;5072545;28;20086;-51
2021/01/07 05:44:04;;;;;;;1.73;0.70;;;;;;;;;;5072462;28;20020;-42
2021/01/07 05:46:32;;;;;;;1.90;0.40;;;;;;;;;;5072420;28;20028;-44
2021/01/07 05:48:59;;;;;;;4.82;0.60;;;;;;;;;;5072160;28;20100;-45
2021/01/07 05:51:29;;;;;;;2.22;0.45;;;;;;;;;;5072339;28;20028;-41
2021/01/07 05:53:57;;;;;;;4.40;0.65;;;;;;;;;;5072326;28;20031;-42
2021/01/07 05:56:25;;;;;;;3.13;0.60;;;;;;;;;;5054452;28;20078;-42
2021/01/07 05:58:53;;;;;;;1.30;0.40;;;;;;;;;;5072212;28;20021;-44
2021/01/07 06:01:20;;;;;;;0.75;0.38;;;;;;;;;;5075925;28;20062;-45
2021/01/07 06:03:54;;;;;;;4.07;0.77;;;;;;;;;;5076453;28;20044;-42
2021/01/07 06:06:22;;;;;;;2.35;0.40;;;;;;;;;;5076386;28;20060;-42
2021/01/07 06:08:50;;;;;;;2.38;0.73;;;;;;;;;;5076216;28;20012;-45
2021/01/07 06:11:18;;;;;;;1.98;0.70;;;;;;;;;;5076213;28;20020;-45
2021/01/07 06:13:49;;;;;;;7.55;1.60;;;;;;;;;;5058520;28;20021;-43
2021/01/07 06:16:17;;;;;;;2.25;0.50;;;;;;;;;;5075915;28;20081;-44
2021/01/07 06:18:44;;;;;;;1.80;0.30;;;;;;;;;;5075972;28;20095;-43
2021/01/07 06:21:12;;;;;;;2.47;0.45;;;;;;;;;;5075902;28;20599;-45
2021/01/07 06:23:46;;;;;;;2.65;0.50;;;;;;;;;;5075930;28;20032;-44
2021/01/07 06:26:24;;;;;;;1.60;0.40;;;;;;;;;;5075766;28;20032;-45
2021/01/07 06:28:52;;;;;;;3.58;0.60;;;;;;;;;;5075563;28;20024;-43
2021/01/07 06:31:19;;;;;;;2.42;0.57;;;;;;;;;;5075879;28;20114;-44
2021/01/07 06:33:46;;;;;;;3.20;0.50;;;;;;;;;;5075682;28;20024;-44
2021/01/07 06:36:13;;;;;;;2.55;0.50;;;;;;;;;;5075663;28;20103;-43
2021/01/07 06:38:53;;;;;;;2.08;0.50;;;;;;;;;;5075615;28;20025;-45
2021/01/07 06:41:21;;;;;;;1.63;0.30;;;;;;;;;;5075315;28;20386;-45
2021/01/07 06:43:48;;;;;;;1.98;0.30;;;;;;;;;;5075517;28;20599;-47
2021/01/07 06:46:35;;;;;;;2.65;0.50;;;;;;;;;;5075467;28;20020;-43
2021/01/07 06:49:16;;;;;;;2.10;0.40;;;;;;;;;;5075299;28;20473;-44
2021/01/07 06:51:48;;;;;;;1.42;0.47;;;;;;;;;;5075353;28;20172;-43
2021/01/07 06:54:16;;;;;;;1.63;0.45;;;;;;;;;;5075418;28;20025;-41
2021/01/07 06:56:44;;;;;;;2.60;0.50;;;;;;;;;;5075268;28;20024;-43
2021/01/07 06:59:13;;;;;;;3.53;0.60;;;;;;;;;;5075195;28;20169;-43
2021/01/07 07:01:48;;;;;;;2.83;0.60;;;;;;;;;;5075012;28;20025;-42
2021/01/07 07:04:24;;;;;;;3.17;0.60;;;;;;;;;;5075298;28;20480;-44
2021/01/07 07:06:57;;;;;;;3.03;0.50;;;;;;;;;;5075194;28;20033;-46
2021/01/07 07:09:25;;;;;;;3.53;0.50;;;;;;;;;;5075059;28;20055;-42
2021/01/07 07:11:55;;;;;;;1.38;0.35;;;;;;;;;;5074742;28;20104;-43
2021/01/07 07:14:23;;;;;;;2.63;0.40;;;;;;;;;;5075119;28;20024;-44
2021/01/07 07:16:51;;;;;;;3.20;0.45;;;;;;;;;;5074840;28;20020;-46
2021/01/07 07:19:27;;;;;;;3.78;0.47;;;;;;;;;;5074649;28;20480;-43
2021/01/07 07:22:00;;;;;;;3.33;0.52;;;;;;;;;;5074540;28;20052;-44
2021/01/07 07:24:35;;;;;;;1.60;0.50;;;;;;;;;;5074859;28;20090;-43
2021/01/07 07:27:08;;;;;;;2.92;0.50;;;;;;;;;;5074918;28;20017;-42
2021/01/07 07:29:36;;;;;;;2.40;0.40;;;;;;;;;;5074458;28;20027;-42
2021/01/07 07:32:20;;;;;;;3.10;0.80;;;;;;;;;;5074654;28;20277;-42
2021/01/07 07:34:50;;;;;;;2.88;0.55;;;;;;;;;;5074547;28;20514;-43
2021/01/07 07:37:25;;;;;;;3.63;0.60;;;;;;;;;;5074756;28;20024;-44
2021/01/07 07:40:02;;;;;;;5.03;0.70;;;;;;;;;;5074506;28;20036;-42
2021/01/07 07:42:30;;;;;;;1.40;0.60;;;;;;;;;;5074419;28;20040;-44
2021/01/07 07:44:57;;;;;;;4.95;0.80;;;;;;;;;;5074380;28;20099;-43
2021/01/07 07:47:24;;;;;;;4.85;0.85;;;;;;;;;;5056468;28;20108;-43
2021/01/07 07:49:55;;;;;;;1.77;0.50;;;;;;;;;;5074433;28;20024;-43
2021/01/07 07:52:23;;;;;;;2.10;0.50;;;;;;;;;;5074329;28;20141;-43
2021/01/07 07:55:00;;;;;;;1.13;0.50;;;;;;;;;;5074086;28;20548;-55
2021/01/07 07:57:27;;;;;;;2.10;0.32;;;;;;;;;;5074225;28;20070;-53
2021/01/07 07:59:54;;;;;;;2.63;0.50;;;;;;;;;;5074145;28;20061;-51
2021/01/07 08:02:21;;;;;;;0.73;0.43;;;;;;;;;;5073964;28;20124;-50
2021/01/07 08:04:48;;;;;;;1.33;0.43;;;;;;;;;;5074186;28;20074;-50
2021/01/07 08:07:15;;;;;;;2.92;0.60;;;;;;;;;;5073940;28;20532;-52
2021/01/07 08:09:42;;;;;;;2.08;0.60;;;;;;;;;;5073677;28;20468;-51
2021/01/07 08:12:09;;;;;;;2.33;0.60;;;;;;;;;;5073973;28;20028;-49
2021/01/07 08:14:40;;;;;;;3.25;0.70;;;;;;;;;;5073846;28;20064;-48
2021/01/07 08:17:07;;;;;;;1.90;0.60;;;;;;;;;;5073674;28;20031;-48
2021/01/07 08:19:35;;;;;;;1.42;0.52;;;;;;;;;;5073687;28;20067;-51
2021/01/07 08:22:03;;;;;;;1.42;0.60;;;;;;;;;;5072961;28;20043;-50
2021/01/07 08:24:30;;;;;;;2.53;0.55;;;;;;;;;;5073514;28;20013;-51
2021/01/07 08:27:16;;;;;;;1.70;0.43;;;;;;;;;;5055617;28;20029;-49
2021/01/07 08:29:45;;;;;;;1.77;0.73;;;;;;;;;;5073552;28;20032;-47
2021/01/07 08:32:13;;;;;;;3.90;0.55;;;;;;;;;;5073637;28;20468;-48
2021/01/07 08:34:41;;;;;;;5.20;0.63;;;;;;;;;;5073363;28;20034;-45
2021/01/07 08:37:12;;;;;;;2.85;0.35;;;;;;;;;;5055657;28;20043;-41
2021/01/07 08:39:40;;;;;;;4.00;0.80;;;;;;;;;;5073372;28;20031;-44
2021/01/07 08:42:07;;;;;;;4.18;0.50;;;;;;;;;;5073095;28;20082;-44
2021/01/07 08:44:35;;;;;;;3.33;0.73;;;;;;;;;;5073197;28;20028;-43
2021/01/07 08:47:02;;;;;;;1.70;0.65;;;;;;;;;;5073329;28;20045;-43
2021/01/07 08:49:29;;;;;;;3.67;1.00;;;;;;;;;;5073032;28;20020;-46
2021/01/07 08:52:02;;;;;;;2.83;1.17;;;;;;;;;;5072952;28;20388;-43
2021/01/07 08:54:29;;;;;;;3.40;1.02;;;;;;;;;;5073078;28;20025;-44
2021/01/07 08:56:56;;;;;;;3.42;1.50;;;;;;;;;;5073127;28;20104;-43
2021/01/07 08:59:25;;;;;;;4.85;1.80;;;;;;;;;;5072914;28;20025;-46
2021/01/07 09:01:56;;;;;;;4.97;1.45;;;;;;;;;;5072793;28;20029;-43
2021/01/07 09:04:23;;;;;;;7.13;2.60;;;;;;;;;;5072825;28;20075;-45
2021/01/07 09:07:00;;;;;;;9.68;4.55;;;;;;;;;;5072881;28;20442;-44
2021/01/07 09:09:27;;;;;;;17.83;6.90;;;;;;;;;;5072652;28;20031;-44
2021/01/07 09:12:12;;;;;;;19.95;9.38;;;;;;;;;;5072687;28;20028;-48
2021/01/07 09:14:50;;;;;;;34.15;15.57;;;;;;;;;;5072585;28;20024;-45
2021/01/07 09:17:18;;;;;;;26.45;13.00;;;;;;;;;;5072660;28;20059;-43
2021/01/07 09:19:45;;;;;;;27.73;14.23;;;;;;;;;;5054584;28;20040;-44
2021/01/07 09:22:19;;;;;;;30.65;14.02;;;;;;;;;;5072533;28;20047;-44
2021/01/07 09:24:46;;;;;;;23.77;11.45;;;;;;;;;;5072531;28;20104;-44
2021/01/07 09:27:14;;;;;;;24.30;9.88;;;;;;;;;;5072530;28;20027;-46
2021/01/07 09:29:41;;;;;;;24.35;10.10;;;;;;;;;;5072537;28;20032;-43
2021/01/07 09:32:09;;;;;;;18.50;9.45;;;;;;;;;;5072472;28;20545;-42
2021/01/07 09:34:36;;;;;;;25.90;10.30;;;;;;;;;;5072708;28;20071;-44
2021/01/07 09:37:07;;;;;;;29.15;12.13;;;;;;;;;;5072463;28;20024;-49
2021/01/07 09:39:35;;;;;;;27.02;13.52;;;;;;;;;;5072307;28;20059;-43
2021/01/07 09:42:02;;;;;;;28.25;12.57;;;;;;;;;;5072336;28;20037;-43
2021/01/07 09:44:29;;;;;;;17.95;8.60;;;;;;;;;;5072747;28;20049;-45
2021/01/07 09:46:57;;;;;;;20.33;7.68;;;;;;;;;;5072390;28;20025;-44
2021/01/07 09:49:24;;;;;;;14.00;6.18;;;;;;;;;;5072326;28;20025;-43
2021/01/07 09:51:51;;;;;;;9.57;4.88;;;;;;;;;;5072516;28;20032;-42
2021/01/07 09:54:20;;;;;;;10.80;4.65;;;;;;;;;;5072302;28;20016;-47
2021/01/07 09:56:47;;;;;;;7.22;3.45;;;;;;;;;;5072073;28;20028;-44
2021/01/07 09:59:14;;;;;;;10.68;4.35;;;;;;;;;;5072528;28;20031;-43
2021/01/07 10:01:41;;;;;;;8.65;3.40;;;;;;;;;;5072148;28;20016;-45
2021/01/07 10:04:08;;;;;;;6.43;3.10;;;;;;;;;;5072060;28;20430;-43
2021/01/07 10:06:35;;;;;;;6.80;2.80;;;;;;;;;;5072330;28;20021;-43
2021/01/07 10:09:02;;;;;;;5.65;2.35;;;;;;;;;;5072297;28;20419;-43
2021/01/07 10:11:29;;;;;;;6.97;2.78;;;;;;;;;;5071960;28;20020;-43
2021/01/07 10:13:56;;;;;;;7.63;3.55;;;;;;;;;;5054396;28;20384;-43
2021/01/07 10:16:23;;;;;;;10.32;4.13;;;;;;;;;;5072234;28;20392;-43
2021/01/07 10:18:50;;;;;;;14.77;5.28;;;;;;;;;;5072089;28;20488;-43
2021/01/07 10:21:20;;;;;;;9.45;4.40;;;;;;;;;;5071901;28;20080;-45
2021/01/07 10:23:48;;;;;;;8.32;3.97;;;;;;;;;;5071922;28;20024;-44
2021/01/07 10:26:18;;;;;;;8.90;3.92;;;;;;;;;;5071925;28;20103;-45
2021/01/07 10:28:46;;;;;;;5.68;3.05;;;;;;;;;;5072099;28;20025;-44
2021/01/07 10:31:13;;;;;;;5.40;2.47;;;;;;;;;;5072025;28;20075;-44
2021/01/07 10:33:41;;;;;;;5.75;2.42;;;;;;;;;;5071926;28;20097;-43
2021/01/07 10:36:08;;;;;;;7.75;2.17;;;;;;;;;;5072049;28;20025;-44
2021/01/07 10:38:37;;;;;;;3.97;1.83;;;;;;;;;;5053897;28;20166;-43
2021/01/07 10:41:07;;;;;;;4.20;1.80;;;;;;;;;;5071881;28;20599;-43
2021/01/07 10:43:35;;;;;;;4.15;1.70;;;;;;;;;;5071756;28;20506;-43
2021/01/07 10:46:02;;;;;;;4.93;1.92;;;;;;;;;;5073332;28;20049;-45
2021/01/07 10:48:31;;;;;;;3.90;1.73;;;;;;;;;;5075277;28;20047;-44
2021/01/07 10:51:00;;;;;;;4.85;2.00;;;;;;;;;;5075291;28;20028;-44
2021/01/07 10:53:46;;;;;;;5.80;1.88;;;;;;;;;;5075319;28;20025;-43
2021/01/07 10:56:22;;;;;;;3.00;1.40;;;;;;;;;;5057502;28;20020;-43
2021/01/07 10:59:07;;;;;;;3.03;1.10;;;;;;;;;;5075312;28;20028;-43
2021/01/07 11:01:34;;;;;;;2.85;1.05;;;;;;;;;;5075109;28;20100;-41
2021/01/07 11:04:04;;;;;;;4.30;1.40;;;;;;;;;;5075166;28;20028;-44
2021/01/07 11:06:33;;;;;;;3.42;1.00;;;;;;;;;;5075185;28;20021;-45
2021/01/07 11:09:04;;;;;;;3.53;0.90;;;;;;;;;;5075239;28;20024;-43
2021/01/07 11:11:41;;;;;;;2.95;1.05;;;;;;;;;;5075080;28;20027;-45
2021/01/07 11:14:28;;;;;;;4.25;1.30;;;;;;;;;;5075047;28;20021;-42
2021/01/07 11:16:58;;;;;;;1.65;0.73;;;;;;;;;;5061222;28;20550;-45
2021/01/07 11:19:26;;;;;;;2.70;0.73;;;;;;;;;;5074902;28;20031;-44
2021/01/07 11:22:01;;;;;;;1.77;0.95;;;;;;;;;;5074834;28;20135;-43
2021/01/07 11:24:28;;;;;;;6.15;0.82;;;;;;;;;;5074932;28;20357;-41
2021/01/07 11:26:55;;;;;;;3.53;0.70;;;;;;;;;;5074527;28;20036;-43
2021/01/07 11:29:23;;;;;;;2.08;0.73;;;;;;;;;;5074631;28;20130;-49
2021/01/07 11:31:50;;;;;;;6.63;0.95;;;;;;;;;;5074942;28;20488;-51
2021/01/07 11:34:20;;;;;;;3.20;0.90;;;;;;;;;;5074633;28;20476;-50
2021/01/07 11:36:57;;;;;;;3.42;0.90;;;;;;;;;;5074587;28;20020;-48
2021/01/07 11:39:29;;;;;;;3.03;1.02;;;;;;;;;;5074451;28;20038;-48
2021/01/07 11:42:10;;;;;;;4.90;0.90;;;;;;;;;;5074629;28;20040;-48
2021/01/07 11:44:43;;;;;;;3.72;0.60;;;;;;;;;;5074470;28;20392;-48
2021/01/07 11:47:09;;;;;;;;;;;;;;;;;;5074834;28;20115;-45
2021/01/07 11:49:42;;;;;;;3.25;0.50;;;;;;;;;;5074353;28;19987;-50
2021/01/07 11:52:10;;;;;;;3.00;0.57;;;;;;;;;;5074250;28;20023;-46
2021/01/07 11:54:39;;;;;;;1.58;0.47;;;;;;;;;;5074251;28;20057;-46
2021/01/07 11:57:09;;;;;;;5.57;0.70;;;;;;;;;;5073268;28;20017;-47
2021/01/07 11:59:38;;;;;;;11.35;0.88;;;;;;;;;;5074207;28;20021;-44
2021/01/07 12:02:09;;;;;;;10.65;0.57;;;;;;;;;;5074070;28;20353;-45
2021/01/07 12:04:37;;;;;;;12.77;0.70;;;;;;;;;;5074078;28;20035;-47
2021/01/07 12:07:09;;;;;;;1.42;0.30;;;;;;;;;;5055933;28;20330;-45
2021/01/07 12:09:40;;;;;;;1.75;0.50;;;;;;;;;;5074105;28;20486;-45
2021/01/07 12:12:14;;;;;;;1.20;0.37;;;;;;;;;;5074106;28;20028;-43
2021/01/07 12:14:48;;;;;;;2.28;0.63;;;;;;;;;;5073873;28;20247;-49
2021/01/07 12:17:15;;;;;;;4.80;0.40;;;;;;;;;;5056066;28;20052;-44
2021/01/07 12:19:42;;;;;;;0.65;0.32;;;;;;;;;;5073681;28;20028;-43
2021/01/07 12:22:14;;;;;;;2.53;0.40;;;;;;;;;;5073567;28;20499;-43
2021/01/07 12:24:42;;;;;;;2.60;0.50;;;;;;;;;;5067219;28;20480;-44
2021/01/07 12:27:10;;;;;;;8.75;1.08;;;;;;;;;;5063361;28;20364;-46
2021/01/07 12:29:40;;;;;;;7.05;0.77;;;;;;;;;;5072537;28;20039;-45
2021/01/07 12:32:30;;;;;;;11.65;0.80;;;;;;;;;;5072804;28;20056;-44
2021/01/07 12:35:06;;;;;;;4.10;0.90;;;;;;;;;;5067111;28;20036;-51
2021/01/07 12:37:41;;;;;;;3.80;0.70;;;;;;;;;;5072919;28;20023;-48
2021/01/07 12:40:09;;;;;;;3.65;1.05;;;;;;;;;;5073077;28;20020;-44
2021/01/07 12:42:44;;;;;;;21.35;0.93;;;;;;;;;;5072861;28;20040;-47
2021/01/07 12:45:16;;;;;;;3.13;0.63;;;;;;;;;;5072919;28;20472;-45
2021/01/07 12:47:43;;;;;;;3.10;0.43;;;;;;;;;;5069536;28;20078;-45
2021/01/07 12:50:11;;;;;;;7.82;0.98;;;;;;;;;;5055146;28;20017;-46
2021/01/07 12:52:38;;;;;;;3.85;0.77;;;;;;;;;;5053258;28;20384;-45
2021/01/07 12:55:09;;;;;;;5.93;0.60;;;;;;;;;;5052780;28;20350;-46
2021/01/07 12:57:40;;;;;;;6.57;1.38;;;;;;;;;;5072212;28;20020;-48
2021/01/07 13:00:13;;;;;;;7.40;1.00;;;;;;;;;;5065603;28;20033;-45
2021/01/07 13:02:40;;;;;;;7.50;0.73;;;;;;;;;;5068404;28;20334;-46
2021/01/07 13:05:15;;;;;;;5.80;0.68;;;;;;;;;;5067873;28;20021;-44
2021/01/07 13:07:43;;;;;;;4.57;0.57;;;;;;;;;;5056004;28;20025;-43
2021/01/07 13:10:11;;;;;;;3.40;0.60;;;;;;;;;;5069202;28;20028;-45
2021/01/07 13:12:40;;;;;;;5.63;0.60;;;;;;;;;;5071997;28;20020;-46
2021/01/07 13:15:11;;;;;;;10.38;0.65;;;;;;;;;;5071743;28;20048;-45
2021/01/07 13:17:38;;;;;;;7.80;0.70;;;;;;;;;;5071171;28;20025;-46
2021/01/07 13:20:06;;;;;;;5.25;0.70;;;;;;;;;;5070070;28;20048;-45
2021/01/07 13:22:35;;;;;;;6.38;1.30;;;;;;;;;;5069736;28;20396;-45
2021/01/07 13:25:02;;;;;;;4.82;0.90;;;;;;;;;;5069809;28;20013;-44
2021/01/07 13:27:29;;;;;;;2.00;0.60;;;;;;;;;;5071329;28;20063;-43
2021/01/07 13:29:56;;;;;;;3.70;0.60;;;;;;;;;;5071581;28;20507;-44
2021/01/07 13:32:24;;;;;;;9.90;0.90;;;;;;;;;;5071653;28;20020;-44
2021/01/07 13:34:52;;;;;;;4.60;1.10;;;;;;;;;;5071610;28;20024;-46
2021/01/07 13:37:20;;;;;;;1.90;0.57;;;;;;;;;;5071345;28;20021;-45
2021/01/07 13:39:48;;;;;;;8.35;1.13;;;;;;;;;;5053524;28;20020;-49
2021/01/07 13:42:16;;;;;;;5.05;1.00;;;;;;;;;;5071244;28;20024;-46
2021/01/07 13:44:45;;;;;;;10.05;1.13;;;;;;;;;;5070338;28;20016;-47
2021/01/07 13:47:13;;;;;;;3.65;1.17;;;;;;;;;;5070363;28;20078;-43
2021/01/07 13:49:40;;;;;;;7.90;0.88;;;;;;;;;;5070568;28;20020;-44
2021/01/07 13:52:08;;;;;;;6.20;1.30;;;;;;;;;;5063624;28;20361;-42
2021/01/07 13:54:38;;;;;;;3.40;0.70;;;;;;;;;;5070925;28;20427;-42
2021/01/07 13:57:06;;;;;;;7.53;1.30;;;;;;;;;;5071108;28;20025;-43
2021/01/07 13:59:33;;;;;;;10.55;1.00;;;;;;;;;;5069429;28;20059;-45
2021/01/07 14:02:07;;;;;;;11.55;1.20;;;;;;;;;;5071379;28;20024;-45
2021/01/07 14:04:40;;;;;;;9.25;1.15;;;;;;;;;;5071233;28;20031;-42
2021/01/07 14:07:12;;;;;;;7.88;0.80;;;;;;;;;;5070903;28;20404;-42
2021/01/07 14:09:45;;;;;;;7.00;0.77;;;;;;;;;;5071324;28;20032;-42
2021/01/07 14:12:15;;;;;;;12.55;1.73;;;;;;;;;;5071424;28;20031;-44
2021/01/07 14:14:43;;;;;;;5.60;1.30;;;;;;;;;;5071106;28;20024;-45
2021/01/07 14:17:10;;;;;;;14.13;1.45;;;;;;;;;;5070789;28;20025;-47
2021/01/07 14:19:38;;;;;;;5.10;0.70;;;;;;;;;;5070682;28;20070;-44
2021/01/07 14:22:05;;;;;;;8.38;1.05;;;;;;;;;;5074377;28;20124;-44
2021/01/07 14:24:36;;;;;;;4.70;0.80;;;;;;;;;;5074889;28;20020;-46
2021/01/07 14:27:13;;;;;;;4.50;0.90;;;;;;;;;;5075123;28;20009;-43
2021/01/07 14:29:44;;;;;;;18.30;2.00;;;;;;;;;;5075407;28;20372;-45
2021/01/07 14:32:11;;;;;;;3.17;0.80;;;;;;;;;;5053681;28;20483;-45
2021/01/07 14:34:40;;;;;;;6.90;0.82;;;;;;;;;;5063151;28;20049;-42
2021/01/07 14:37:07;;;;;;;4.32;0.80;;;;;;;;;;5074039;28;20016;-44
2021/01/07 14:39:34;;;;;;;10.70;0.90;;;;;;;;;;5065529;28;20028;-44
2021/01/07 14:42:01;;;;;;;8.65;0.90;;;;;;;;;;5059975;28;20082;-46
2021/01/07 14:44:28;;;;;;;8.23;0.90;;;;;;;;;;5060707;28;20114;-43
2021/01/07 14:46:59;;;;;;;5.20;0.90;;;;;;;;;;5073980;28;20503;-43
2021/01/07 14:49:28;;;;;;;6.35;1.23;;;;;;;;;;5073919;28;20070;-43
2021/01/07 14:51:58;;;;;;;7.43;0.82;;;;;;;;;;5059316;28;20047;-46